Tuesday, November 13, 2018, 7:27 PM EST
Back to Local

KBHB, Bar Harbor, Hancock County-bar Harbor Airport

Location: Ellsworth, ME, United States Lat: 44.45
Local Time: 7:27 PM EST ( 0:27 GMT) Lon: -68.367
Time Zone: US/Eastern Elev: 82 ft

Show me the last for .
Show Decoded

2018-11-13 18:56 METAR KBHB 132356Z AUTO 31013G23KT 10SM OVC007 07/06 A2958 RMK AO2 PRESRR SLP021
                 60055 T00670061 10094 20067 400941022 55024 =
2018-11-13 17:56 METAR KBHB 132256Z AUTO 34008KT 7SM BKN007 OVC011 08/07 A2954 RMK AO2 RAE37
                 SLP008 P0001 T00780072 =
2018-11-13 16:56 METAR KBHB 132156Z AUTO 03011KT 10SM -RA OVC007 08/08 A2955 RMK AO2 SLP012 P0003
                 T00830078 =
2018-11-13 16:35 METAR KBHB 132135Z AUTO 04011G20KT 020V080 5SM -RA BR OVC005 08/08 A2959 RMK AO2
                 CIG 004V010 P0003 =
2018-11-13 16:09 METAR KBHB 132109Z AUTO 06009G15KT 2 1/2SM -RA BR OVC005 08/08 A2963 RMK AO2
                 P0001 =
2018-11-13 15:56 METAR KBHB 132056Z AUTO 05008KT 3SM -RA BR OVC005 08/08 A2965 RMK AO2 SLP045
                 P0015 60051 T00830078 58082 =
2018-11-13 15:39 METAR KBHB 132039Z AUTO 08011KT 2SM -RA BR OVC005 08/08 A2966 RMK AO2 CIG
                 003V009 PRESFR P0013 =
2018-11-13 15:24 METAR KBHB 132024Z AUTO 08009G15KT 3SM -RA BR OVC005 08/08 A2969 RMK AO2 CIG
                 003V009 P0010 =
2018-11-13 15:13 METAR KBHB 132013Z AUTO 09012G17KT 2SM RA BR OVC007 09/08 A2971 RMK AO2 VIS 1
                 3/4V2 1/2 CIG 003V009 PRESFR P0007 =
2018-11-13 14:56 METAR KBHB 131956Z AUTO 09009G15KT 3SM RA BR BKN007 BKN012 OVC025 09/08 A2973
                 RMK AO2 CIG 004V010 PRESFR SLP073 P0023 T00890083 =
2018-11-13 13:56 METAR KBHB 131856Z AUTO 15013G18KT 7SM -RA OVC007 09/08 A2982 RMK AO2 PK WND
                 16027/1817 PRESFR SLP101 P0013 T00890083 =
2018-11-13 12:56 METAR KBHB 131756Z AUTO 15014G21KT 6SM RA BR OVC007 09/08 A2989 RMK AO2 PRESFR
                 SLP127 P0019 60053 T00890078 10089 20022 58084 =
2018-11-13 11:56 METAR KBHB 131656Z AUTO 14006KT 5SM RA BR OVC009 07/06 A2998 RMK AO2 PRESFR
                 SLP156 P0010 T00720061 =
2018-11-13 10:56 METAR KBHB 131556Z AUTO 13009KT 6SM -RA BR BKN013 OVC021 07/05 A3006 RMK AO2
                 PRESFR SLP184 P0009 T00670050 =
2018-11-13 10:35 METAR KBHB 131535Z AUTO 14009G16KT 7SM -RA BKN013 OVC021 06/05 A3010 RMK AO2
                 PRESFR P0007 =
2018-11-13 09:56 METAR KBHB 131456Z AUTO 14008KT 7SM -RA FEW013 BKN020 OVC025 06/04 A3014 RMK AO2
                 SLP210 P0008 60015 T00560039 56028 =
2018-11-13 09:54 METAR KBHB 131454Z AUTO 14010KT 8SM -RA SCT015 OVC020 06/04 A3014 RMK AO2 P0008
                 =
2018-11-13 09:40 METAR KBHB 131440Z AUTO 15010KT 7SM -RA BKN014 BKN020 OVC025 06/04 A3015 RMK AO2
                 P0006 =
2018-11-13 08:56 METAR KBHB 131356Z AUTO 15007KT 8SM -RA OVC018 05/04 A3018 RMK AO2 SLP225 P0004
                 T00500039 =
2018-11-13 07:56 METAR KBHB 131256Z AUTO 00000KT 4SM -RA BR BKN020 BKN028 OVC035 02/01 A3022 RMK
                 AO2 SLP239 P0003 T00220011 FZRANO =
2018-11-13 07:28 METAR KBHB 131228Z AUTO 00000KT 4SM -RA BR FEW005 BKN019 OVC027 02/01 A3024 RMK
                 AO2 P0002 FZRANO =
2018-11-13 07:11 METAR KBHB 131211Z AUTO 01004KT 5SM -RA BR SCT007 BKN014 OVC023 01/01 A3025 RMK
                 AO2 P0001 FZRANO =
2018-11-13 06:56 METAR KBHB 131156Z AUTO 36003KT 4SM -RA BR SCT007 BKN017 OVC042 01/00 A3026 RMK
                 AO2 SLP251 P0003 60019 70019 T00110000 10011 21011 58020 FZRANO =
2018-11-13 05:56 METAR KBHB 131056Z AUTO 34003KT 6SM -RA BR OVC015 01/M01 A3029 RMK AO2 SLP263
                 P0004 T00111006 FZRANO =
2018-11-13 05:30 METAR KBHB 131030Z AUTO 35003KT 7SM -RA OVC015 01/M01 A3030 RMK AO2 P0003 FZRANO
                 =
2018-11-13 04:56 METAR KBHB 130956Z AUTO 00000KT 4SM -RA BR OVC013 01/M01 A3032 RMK AO2 SLP270
                 P0007 T00111006 FZRANO =
2018-11-13 04:49 METAR KBHB 130949Z AUTO 00000KT 4SM -RA BR OVC013 01/M01 A3032 RMK AO2 P0007
                 FZRANO =
2018-11-13 03:56 METAR KBHB 130856Z AUTO 00000KT 7SM -RA OVC019 01/M01 A3033 RMK AO2 UPE53RAB53
                 SLP274 P0004 60005 T00061011 58010 FZRANO =
2018-11-13 02:56 METAR KBHB 130756Z AUTO 00000KT 10SM UP BKN023 OVC028 00/M01 A3034 RMK AO2 UPB00
                 SLP279 P0001 T00001011 FZRANO =
2018-11-13 02:42 METAR KBHB 130742Z AUTO 34003KT 9SM UP BKN025 OVC035 00/M01 A3035 RMK AO2 UPB00
                 P0000 FZRANO =
2018-11-13 01:56 METAR KBHB 130656Z AUTO 33003KT 10SM BKN035 OVC050 00/M02 A3036 RMK AO2 SLP285
                 T00001022 FZRANO =
2018-11-13 00:56 METAR KBHB 130556Z AUTO 02003KT 10SM BKN120 M01/M03 A3036 RMK AO2 PRESFR SLP283
                 T10111033 10000 21022 58019 FZRANO =
2018-11-12 23:56 METAR KBHB 130456Z AUTO 00000KT 10SM CLR M01/M03 A3040 RMK AO2 SLP297 T10111033
                 FZRANO =
2018-11-12 22:56 METAR KBHB 130356Z AUTO 00000KT 9SM FEW120 M02/M03 A3041 RMK AO2 SLP303
                 T10171033 FZRANO =
2018-11-12 21:56 METAR KBHB 130256Z AUTO 00000KT 10SM CLR M02/M04 A3041 RMK AO2 SLP303 T10221039
                 55001 FZRANO =
2018-11-12 20:56 METAR KBHB 130156Z AUTO 00000KT 10SM CLR M01/M04 A3041 RMK AO2 SLP302 T10111044
                 FZRANO =

Support USWX by starting your Amazon purchase here.